createdAt,value
2023-08-08T00:00:39.911Z,249.84
2023-08-08T00:01:40.052Z,249.51
2023-08-08T00:02:40.012Z,249.70
2023-08-08T00:03:40.123Z,250.00
2023-08-08T00:04:40.026Z,250.00
2023-08-08T00:05:40.082Z,248.28
2023-08-08T00:06:40.306Z,246.64
2023-08-08T00:07:40.214Z,249.64
2023-08-08T00:08:40.341Z,247.79
2023-08-08T00:09:40.384Z,246.82
2023-08-08T00:10:40.470Z,249.47
2023-08-08T00:11:41.532Z,248.79
2023-08-08T00:12:40.548Z,250.00
2023-08-08T00:13:40.565Z,249.28
2023-08-08T00:14:40.540Z,247.62
2023-08-08T00:15:40.755Z,248.70
2023-08-08T00:16:40.650Z,248.75
2023-08-08T00:17:40.772Z,250.00
2023-08-08T00:18:40.715Z,247.87
2023-08-08T00:19:40.806Z,249.13
2023-08-08T00:20:40.834Z,248.59
2023-08-08T00:21:40.866Z,249.99
2023-08-08T00:22:40.940Z,250.00
2023-08-08T00:23:41.069Z,249.28
2023-08-08T00:24:41.090Z,250.00
2023-08-08T00:25:42.420Z,249.82
2023-08-08T00:26:41.071Z,249.06
2023-08-08T00:27:41.298Z,249.02
2023-08-08T00:28:41.393Z,250.00
2023-08-08T00:29:41.405Z,247.93
2023-08-08T00:30:41.348Z,249.37
2023-08-08T00:31:41.391Z,248.88
2023-08-08T00:32:41.495Z,245.89
2023-08-08T00:33:41.448Z,244.91
2023-08-08T00:34:41.411Z,247.04
2023-08-08T00:35:41.677Z,246.06
2023-08-08T00:36:41.730Z,244.47
2023-08-08T00:37:41.699Z,243.35
2023-08-08T00:38:41.655Z,241.87
2023-08-08T00:39:41.838Z,241.96
2023-08-08T00:40:41.690Z,239.63
2023-08-08T00:41:42.048Z,237.38
2023-08-08T00:42:41.878Z,237.27
2023-08-08T00:43:43.150Z,237.25
2023-08-08T00:44:41.989Z,233.78
2023-08-08T00:45:42.059Z,234.25
2023-08-08T00:46:42.125Z,233.90
2023-08-08T00:47:42.125Z,232.83
2023-08-08T00:48:42.136Z,231.22
2023-08-08T00:49:42.361Z,229.06
2023-08-08T00:50:42.329Z,227.08
2023-08-08T00:51:42.395Z,227.40
2023-08-08T00:52:42.365Z,225.57
2023-08-08T00:53:42.481Z,225.91
2023-08-08T00:54:42.434Z,226.29
2023-08-08T00:55:42.545Z,230.41
2023-08-08T00:56:42.571Z,233.11
2023-08-08T00:57:42.659Z,232.98
2023-08-08T00:58:42.674Z,232.58
2023-08-08T00:59:42.826Z,235.21
2023-08-08T01:00:42.790Z,238.33
2023-08-08T01:01:42.914Z,239.92
2023-08-08T01:02:43.051Z,240.21
2023-08-08T01:03:43.062Z,241.76
2023-08-08T01:04:43.100Z,242.81
2023-08-08T01:05:43.080Z,242.96
2023-08-08T01:06:43.179Z,245.68
2023-08-08T01:07:43.105Z,248.18
2023-08-08T01:08:43.242Z,247.01
2023-08-08T01:09:43.515Z,247.10
2023-08-08T01:10:43.275Z,248.25
2023-08-08T01:11:45.509Z,249.26
2023-08-08T01:12:43.500Z,247.99
2023-08-08T01:13:43.403Z,248.71
2023-08-08T01:14:43.442Z,249.75
2023-08-08T01:15:43.681Z,249.60
2023-08-08T01:16:44.009Z,249.48
2023-08-08T01:17:43.755Z,249.67
2023-08-08T01:18:43.745Z,246.74
2023-08-08T01:19:43.707Z,245.53
2023-08-08T01:20:45.153Z,244.06
2023-08-08T01:21:43.834Z,245.32
2023-08-08T01:22:43.997Z,243.00
2023-08-08T01:23:44.002Z,244.22
2023-08-08T01:24:44.053Z,242.14
2023-08-08T01:25:44.027Z,240.61
2023-08-08T01:26:44.305Z,238.80
2023-08-08T01:27:44.139Z,239.51
2023-08-08T01:28:44.180Z,237.68
2023-08-08T01:29:44.993Z,238.39
2023-08-08T01:30:44.478Z,236.60
2023-08-08T01:31:44.389Z,237.41
2023-08-08T01:32:44.601Z,237.37
2023-08-08T01:33:44.692Z,235.48
2023-08-08T01:34:44.769Z,235.97
2023-08-08T01:35:44.595Z,234.72
2023-08-08T01:36:44.629Z,233.58
2023-08-08T01:37:44.854Z,232.43
2023-08-08T01:38:44.763Z,232.80
2023-08-08T01:39:44.962Z,233.23
2023-08-08T01:40:44.920Z,232.28
2023-08-08T01:41:44.967Z,230.60
2023-08-08T01:42:45.082Z,230.86
2023-08-08T01:43:45.090Z,230.82
2023-08-08T01:44:45.137Z,230.37
2023-08-08T01:45:45.232Z,230.94
2023-08-08T01:46:45.312Z,229.75
2023-08-08T01:47:45.289Z,229.73
2023-08-08T01:48:45.250Z,228.80
2023-08-08T01:49:45.427Z,229.40
2023-08-08T01:50:45.355Z,227.58
2023-08-08T01:51:45.470Z,225.77
2023-08-08T01:52:45.537Z,224.68
2023-08-08T01:53:45.769Z,226.58
2023-08-08T01:54:45.571Z,224.66
2023-08-08T01:55:46.703Z,224.83
2023-08-08T01:56:45.807Z,223.59
2023-08-08T01:57:45.865Z,224.92
2023-08-08T01:58:46.029Z,226.04
2023-08-08T01:59:45.879Z,226.40
2023-08-08T02:00:46.036Z,225.54
2023-08-08T02:01:46.163Z,228.27
2023-08-08T02:02:46.211Z,226.22
2023-08-08T02:03:46.201Z,227.59
2023-08-08T02:04:46.361Z,226.72
2023-08-08T02:05:46.322Z,227.04
2023-08-08T02:06:46.511Z,226.15
2023-08-08T02:07:46.349Z,227.17
2023-08-08T02:08:46.346Z,227.41
2023-08-08T02:09:46.511Z,227.18
2023-08-08T02:10:46.570Z,226.13
2023-08-08T02:11:46.738Z,225.82
2023-08-08T02:12:46.518Z,226.39
2023-08-08T02:13:46.781Z,225.52
2023-08-08T02:14:46.875Z,227.19
2023-08-08T02:15:47.039Z,228.04
2023-08-08T02:16:46.874Z,230.28
2023-08-08T02:17:47.047Z,228.96
2023-08-08T02:18:46.881Z,230.13
2023-08-08T02:19:46.982Z,230.19
2023-08-08T02:20:47.114Z,228.74
2023-08-08T02:21:47.114Z,228.15
2023-08-08T02:22:47.177Z,228.45
2023-08-08T02:23:47.186Z,227.39
2023-08-08T02:24:47.366Z,228.84
2023-08-08T02:25:47.467Z,228.00
2023-08-08T02:26:47.375Z,229.89
2023-08-08T02:27:47.526Z,227.89
2023-08-08T02:28:47.453Z,228.94
2023-08-08T02:29:47.583Z,228.33
2023-08-08T02:30:47.638Z,226.21
2023-08-08T02:31:47.721Z,228.04
2023-08-08T02:32:47.719Z,227.24
2023-08-08T02:33:47.672Z,225.83
2023-08-08T02:34:47.792Z,226.18
2023-08-08T02:35:47.974Z,228.34
2023-08-08T02:36:47.968Z,227.97
2023-08-08T02:37:47.956Z,228.38
2023-08-08T02:38:48.027Z,228.46
2023-08-08T02:39:48.132Z,228.72
2023-08-08T02:40:48.056Z,228.60
2023-08-08T02:41:48.225Z,229.07
2023-08-08T02:42:48.329Z,229.60
2023-08-08T02:43:48.408Z,228.57
2023-08-08T02:44:48.376Z,227.46
2023-08-08T02:45:48.471Z,228.47
2023-08-08T02:46:48.546Z,227.03
2023-08-08T02:47:48.820Z,227.04
2023-08-08T02:48:48.612Z,228.00
2023-08-08T02:49:48.935Z,226.45
2023-08-08T02:50:48.677Z,228.13
2023-08-08T02:51:48.840Z,227.67
2023-08-08T02:52:48.911Z,226.44
2023-08-08T02:53:49.004Z,226.60
2023-08-08T02:54:49.495Z,225.83
2023-08-08T02:55:49.034Z,226.35
2023-08-08T02:56:49.125Z,229.11
2023-08-08T02:57:49.151Z,226.70
2023-08-08T02:58:49.202Z,225.78
2023-08-08T02:59:49.270Z,226.50
2023-08-08T03:00:49.233Z,224.93
2023-08-08T03:01:49.404Z,226.59
2023-08-08T03:02:49.516Z,226.58
2023-08-08T03:03:49.536Z,227.18
2023-08-08T03:04:49.493Z,226.25
2023-08-08T03:05:49.622Z,227.19
2023-08-08T03:06:49.675Z,227.01
2023-08-08T03:07:49.753Z,226.89
2023-08-08T03:08:49.775Z,223.56
2023-08-08T03:09:49.873Z,226.26
2023-08-08T03:10:49.971Z,227.18
2023-08-08T03:11:50.013Z,226.51
2023-08-08T03:12:50.044Z,227.11
2023-08-08T03:13:50.018Z,226.84
2023-08-08T03:14:50.187Z,229.86
2023-08-08T03:15:51.280Z,229.06
2023-08-08T03:16:50.286Z,230.74
2023-08-08T03:17:50.595Z,231.08
2023-08-08T03:18:50.472Z,228.16
2023-08-08T03:19:50.382Z,228.83
2023-08-08T03:20:50.602Z,227.77
2023-08-08T03:21:50.637Z,227.93
2023-08-08T03:22:50.746Z,230.02
2023-08-08T03:23:50.696Z,231.08
2023-08-08T03:24:50.748Z,230.75
2023-08-08T03:25:50.782Z,229.73
2023-08-08T03:26:50.788Z,230.40
2023-08-08T03:27:50.945Z,230.41
2023-08-08T03:28:51.002Z,229.79
2023-08-08T03:29:50.983Z,231.80
2023-08-08T03:30:51.083Z,232.06
2023-08-08T03:31:51.020Z,232.16
2023-08-08T03:32:51.160Z,232.48
2023-08-08T03:33:51.857Z,232.67
2023-08-08T03:34:51.115Z,233.04
2023-08-08T03:35:50.983Z,233.10
2023-08-08T03:36:50.989Z,234.39
2023-08-08T03:37:51.020Z,235.78
2023-08-08T03:38:51.190Z,236.45
2023-08-08T03:39:51.119Z,237.16
2023-08-08T03:40:51.231Z,237.09
2023-08-08T03:41:52.229Z,238.46
2023-08-08T03:42:51.325Z,238.52
2023-08-08T03:43:52.431Z,238.48
2023-08-08T03:44:51.483Z,239.54
2023-08-08T03:45:51.439Z,242.03
2023-08-08T03:46:52.246Z,240.84
2023-08-08T03:47:51.638Z,244.03
2023-08-08T03:48:53.985Z,243.74
2023-08-08T03:49:51.533Z,243.88
2023-08-08T03:50:51.418Z,244.33
2023-08-08T03:51:51.431Z,246.03
2023-08-08T03:52:51.574Z,248.32
2023-08-08T03:53:52.538Z,251.54
2023-08-08T03:54:51.457Z,247.21
2023-08-08T03:55:51.366Z,248.85
2023-08-08T03:56:52.407Z,247.00
2023-08-08T03:57:51.425Z,248.02
2023-08-08T03:58:51.511Z,247.50
2023-08-08T03:59:51.428Z,245.96
2023-08-08T04:00:51.497Z,245.35
2023-08-08T04:01:51.519Z,248.40
2023-08-08T04:02:51.562Z,247.54
2023-08-08T04:03:51.519Z,248.85
2023-08-08T04:04:51.437Z,249.24
2023-08-08T04:05:51.512Z,249.72
2023-08-08T04:06:51.303Z,249.84
2023-08-08T04:07:51.535Z,249.59
2023-08-08T04:08:51.594Z,247.59
2023-08-08T04:09:51.487Z,247.48
2023-08-08T04:10:51.362Z,248.14
2023-08-08T04:11:51.387Z,249.74
2023-08-08T04:12:51.466Z,249.13
2023-08-08T04:13:51.507Z,250.00
2023-08-08T04:14:51.472Z,249.02
2023-08-08T04:15:51.604Z,249.27
2023-08-08T04:16:51.624Z,247.57
2023-08-08T04:17:51.805Z,247.15
2023-08-08T04:18:51.825Z,247.79
2023-08-08T04:19:51.834Z,248.33
2023-08-08T04:20:51.866Z,249.69
2023-08-08T04:21:51.879Z,249.65
2023-08-08T04:22:51.972Z,248.61
2023-08-08T04:23:52.003Z,248.31
2023-08-08T04:24:52.398Z,249.96
2023-08-08T04:25:53.102Z,248.48
2023-08-08T04:26:52.050Z,249.36
2023-08-08T04:27:52.153Z,248.38
2023-08-08T04:28:53.133Z,249.76
2023-08-08T04:29:52.396Z,248.81
2023-08-08T04:30:52.366Z,247.18
2023-08-08T04:31:52.436Z,247.24
2023-08-08T04:32:52.751Z,246.15
2023-08-08T04:33:52.423Z,244.83
2023-08-08T04:34:52.798Z,245.98
2023-08-08T04:35:52.687Z,245.53
2023-08-08T04:36:52.671Z,246.27
2023-08-08T04:37:52.697Z,243.62
2023-08-08T04:38:52.875Z,242.95
2023-08-08T04:39:52.795Z,242.51
2023-08-08T04:40:52.982Z,244.14
2023-08-08T04:41:52.911Z,244.33
2023-08-08T04:42:53.087Z,242.88
2023-08-08T04:43:53.174Z,242.59
2023-08-08T04:44:53.105Z,241.62
2023-08-08T04:45:53.160Z,241.52
2023-08-08T04:46:53.521Z,240.25
2023-08-08T04:47:53.284Z,241.22
2023-08-08T04:48:53.693Z,242.52
2023-08-08T04:49:53.430Z,241.63
2023-08-08T04:50:53.470Z,244.85
2023-08-08T04:51:53.701Z,245.78
2023-08-08T04:52:53.585Z,246.27
2023-08-08T04:53:53.710Z,245.86
2023-08-08T04:54:53.783Z,248.19
2023-08-08T04:55:53.696Z,250.00
2023-08-08T04:56:54.961Z,249.30
2023-08-08T04:57:53.848Z,249.77
2023-08-08T04:58:54.319Z,249.36
2023-08-08T04:59:54.099Z,248.86
2023-08-08T05:00:53.883Z,250.00
2023-08-08T05:01:53.875Z,250.00
2023-08-08T05:02:53.991Z,249.54
2023-08-08T05:03:56.543Z,249.90
2023-08-08T05:04:53.962Z,250.00
2023-08-08T05:05:53.992Z,250.00
2023-08-08T05:06:53.947Z,249.70
2023-08-08T05:07:53.974Z,247.98
2023-08-08T05:08:53.941Z,242.56
2023-08-08T05:09:53.950Z,241.67
2023-08-08T05:10:53.926Z,238.60
2023-08-08T05:11:53.944Z,237.15
2023-08-08T05:12:53.934Z,236.42
2023-08-08T05:13:53.922Z,233.39
2023-08-08T05:14:53.932Z,233.66
2023-08-08T05:15:53.893Z,227.92
2023-08-08T05:16:54.004Z,224.68
2023-08-08T05:17:54.100Z,223.32
2023-08-08T05:18:54.069Z,219.89
2023-08-08T05:19:55.129Z,218.41
2023-08-08T05:20:54.218Z,215.13
2023-08-08T05:21:54.339Z,212.15
2023-08-08T05:22:54.318Z,209.83
2023-08-08T05:23:55.093Z,208.33
2023-08-08T05:24:54.051Z,206.02
2023-08-08T05:25:54.127Z,204.99
2023-08-08T05:26:54.096Z,207.40
2023-08-08T05:27:53.901Z,206.23
2023-08-08T05:28:54.078Z,207.53
2023-08-08T05:29:53.947Z,208.38
2023-08-08T05:30:54.008Z,212.97
2023-08-08T05:31:53.856Z,216.16
2023-08-08T05:32:54.239Z,217.47
2023-08-08T05:33:53.905Z,218.02
2023-08-08T05:34:54.039Z,219.20
2023-08-08T05:35:53.908Z,221.48
2023-08-08T05:37:06.146Z,220.77
2023-08-08T05:37:54.861Z,220.77
2023-08-08T05:38:54.015Z,221.20
2023-08-08T05:39:53.836Z,221.91
2023-08-08T05:40:54.802Z,224.58
2023-08-08T05:41:54.909Z,229.89
2023-08-08T05:42:53.800Z,230.47
2023-08-08T05:43:53.920Z,231.97
2023-08-08T05:44:54.719Z,233.58
2023-08-08T05:45:53.928Z,232.53
2023-08-08T05:46:53.726Z,234.83
2023-08-08T05:47:53.752Z,236.01
2023-08-08T05:48:53.821Z,237.76
2023-08-08T05:49:53.842Z,240.62
2023-08-08T05:50:53.732Z,241.84
2023-08-08T05:51:54.284Z,245.43
2023-08-08T05:52:53.741Z,246.40
2023-08-08T05:53:53.937Z,249.27
2023-08-08T05:54:54.046Z,248.82
2023-08-08T05:55:53.996Z,250.00
2023-08-08T05:56:53.940Z,250.00
2023-08-08T05:57:54.014Z,247.28
2023-08-08T05:58:54.081Z,249.09
2023-08-08T05:59:54.080Z,249.05
2023-08-08T06:00:54.176Z,245.11
2023-08-08T06:01:54.130Z,243.92
2023-08-08T06:02:54.272Z,246.98
2023-08-08T06:03:54.415Z,248.54
2023-08-08T06:04:54.178Z,248.69
2023-08-08T06:05:54.240Z,246.33
2023-08-08T06:06:54.205Z,245.01
2023-08-08T06:07:54.277Z,240.82
2023-08-08T06:08:54.256Z,236.93
2023-08-08T06:09:54.434Z,238.81
2023-08-08T06:10:54.296Z,237.10
2023-08-08T06:11:54.447Z,240.94
2023-08-08T06:12:54.435Z,241.22
2023-08-08T06:13:54.521Z,234.36
2023-08-08T06:14:54.579Z,234.38
2023-08-08T06:15:54.606Z,236.63
2023-08-08T06:16:54.711Z,238.90
2023-08-08T06:17:54.689Z,242.35
2023-08-08T06:18:54.708Z,245.83
2023-08-08T06:19:54.783Z,246.03
2023-08-08T06:20:54.688Z,244.92
2023-08-08T06:21:54.713Z,242.40
2023-08-08T06:22:54.753Z,237.04
2023-08-08T06:23:54.797Z,234.65
2023-08-08T06:24:54.876Z,229.51
2023-08-08T06:25:54.903Z,228.84
2023-08-08T06:26:54.981Z,227.96
2023-08-08T06:27:54.988Z,228.38
2023-08-08T06:28:55.031Z,235.31
2023-08-08T06:29:55.119Z,231.51
2023-08-08T06:30:55.089Z,230.07
2023-08-08T06:31:55.183Z,225.39
2023-08-08T06:32:55.145Z,226.29
2023-08-08T06:33:55.120Z,226.67
2023-08-08T06:34:55.163Z,225.74
2023-08-08T06:35:55.170Z,225.76
2023-08-08T06:36:55.186Z,227.29
2023-08-08T06:37:55.212Z,225.90
2023-08-08T06:38:55.307Z,228.39
2023-08-08T06:39:55.299Z,229.79
2023-08-08T06:40:55.317Z,223.52
2023-08-08T06:41:55.418Z,224.41
2023-08-08T06:42:55.413Z,222.51
2023-08-08T06:43:55.469Z,222.15
2023-08-08T06:44:55.502Z,219.64
2023-08-08T06:45:55.630Z,217.61
2023-08-08T06:46:55.504Z,216.86
2023-08-08T06:47:55.597Z,217.06
2023-08-08T06:48:55.579Z,223.87
2023-08-08T06:49:55.589Z,231.60
2023-08-08T06:50:55.667Z,236.63
2023-08-08T06:51:55.704Z,238.93
2023-08-08T06:52:55.754Z,242.80
2023-08-08T06:53:55.852Z,241.39
2023-08-08T06:54:55.842Z,247.78
2023-08-08T06:55:55.956Z,243.38
2023-08-08T06:56:56.849Z,242.31
2023-08-08T06:57:55.907Z,241.93
2023-08-08T06:58:55.905Z,244.45
2023-08-08T06:59:55.979Z,241.92
2023-08-08T07:00:55.999Z,244.08
2023-08-08T07:01:56.019Z,246.96
2023-08-08T07:02:56.055Z,245.66
2023-08-08T07:03:56.054Z,246.45
2023-08-08T07:04:56.033Z,250.00
2023-08-08T07:05:56.087Z,249.32
2023-08-08T07:06:56.107Z,248.63
2023-08-08T07:07:56.129Z,247.45
2023-08-08T07:08:56.129Z,244.27
2023-08-08T07:09:56.161Z,243.04
2023-08-08T07:10:57.090Z,243.52
2023-08-08T07:11:56.316Z,240.47
2023-08-08T07:12:56.266Z,240.65
2023-08-08T07:13:56.308Z,239.91
2023-08-08T07:14:56.313Z,236.79
2023-08-08T07:15:56.458Z,233.63
2023-08-08T07:16:56.417Z,233.67
2023-08-08T07:17:56.515Z,234.85
2023-08-08T07:18:56.877Z,231.83
2023-08-08T07:19:56.508Z,230.45
2023-08-08T07:20:56.617Z,233.97
2023-08-08T07:21:56.592Z,235.26
2023-08-08T07:22:56.613Z,231.28
2023-08-08T07:23:56.725Z,235.00
2023-08-08T07:24:56.798Z,232.43
2023-08-08T07:25:56.801Z,229.43
2023-08-08T07:26:57.758Z,223.70
2023-08-08T07:27:56.935Z,217.94
2023-08-08T07:28:56.925Z,210.94
2023-08-08T07:29:56.963Z,202.65
2023-08-08T07:30:57.083Z,203.98
2023-08-08T07:31:57.087Z,204.80
2023-08-08T07:32:57.200Z,200.82
2023-08-08T07:33:57.178Z,200.58
2023-08-08T07:34:57.254Z,201.47
2023-08-08T07:35:57.300Z,207.07
2023-08-08T07:36:57.383Z,211.46
2023-08-08T07:37:57.414Z,213.09
2023-08-08T07:38:57.480Z,212.26
2023-08-08T07:39:57.593Z,208.67
2023-08-08T07:40:57.616Z,205.33
2023-08-08T07:41:57.889Z,205.50
2023-08-08T07:42:57.757Z,197.10
2023-08-08T07:43:57.767Z,193.78
2023-08-08T07:44:57.846Z,189.72
2023-08-08T07:45:57.901Z,185.59
2023-08-08T07:46:58.027Z,184.34
2023-08-08T07:47:58.022Z,181.11
2023-08-08T07:48:58.080Z,182.56
2023-08-08T07:49:58.157Z,181.78
2023-08-08T07:50:58.183Z,186.33
2023-08-08T07:51:58.469Z,185.40
2023-08-08T07:52:58.258Z,185.71
2023-08-08T07:53:58.329Z,184.22
2023-08-08T07:54:58.313Z,183.28
2023-08-08T07:55:58.410Z,182.11
2023-08-08T07:56:58.357Z,181.31
2023-08-08T07:57:58.437Z,181.89
2023-08-08T07:58:58.415Z,181.96
2023-08-08T07:59:58.478Z,183.10
2023-08-08T08:00:58.537Z,179.89
2023-08-08T08:01:58.537Z,181.05
2023-08-08T08:02:58.567Z,177.93
2023-08-08T08:03:58.527Z,175.27
2023-08-08T08:04:58.529Z,175.16
2023-08-08T08:05:58.483Z,174.93
2023-08-08T08:06:58.822Z,172.85
2023-08-08T08:07:58.520Z,170.32
2023-08-08T08:08:58.485Z,166.37
2023-08-08T08:09:58.521Z,165.20
2023-08-08T08:10:58.497Z,163.78
2023-08-08T08:11:58.752Z,159.95
2023-08-08T08:12:58.506Z,159.47
2023-08-08T08:13:58.526Z,158.01
2023-08-08T08:14:58.556Z,160.96
2023-08-08T08:15:58.537Z,159.10
2023-08-08T08:16:58.585Z,153.28
2023-08-08T08:17:58.590Z,152.62
2023-08-08T08:18:58.616Z,150.18
2023-08-08T08:19:58.622Z,149.73
2023-08-08T08:20:58.599Z,147.25
2023-08-08T08:21:59.188Z,142.59
2023-08-08T08:22:58.697Z,144.21
2023-08-08T08:23:58.634Z,141.13
2023-08-08T08:24:58.651Z,138.94
2023-08-08T08:25:59.256Z,136.20
2023-08-08T08:26:58.709Z,136.19
2023-08-08T08:27:58.716Z,136.60
2023-08-08T08:28:58.726Z,136.14
2023-08-08T08:29:58.741Z,134.15
2023-08-08T08:30:58.829Z,132.30
2023-08-08T08:31:59.052Z,129.76
2023-08-08T08:32:58.875Z,128.93
2023-08-08T08:33:58.848Z,127.59
2023-08-08T08:34:58.852Z,126.81
2023-08-08T08:35:58.895Z,128.00
2023-08-08T08:36:58.896Z,124.54
2023-08-08T08:37:58.929Z,126.68
2023-08-08T08:38:58.952Z,128.49
2023-08-08T08:39:58.968Z,126.36
2023-08-08T08:40:58.999Z,122.15
2023-08-08T08:41:59.019Z,121.70
2023-08-08T08:42:59.118Z,120.47
2023-08-08T08:43:59.080Z,117.79
2023-08-08T08:44:59.121Z,114.44
2023-08-08T08:45:59.151Z,112.84
2023-08-08T08:46:59.208Z,112.83
2023-08-08T08:47:59.235Z,109.10
2023-08-08T08:48:59.320Z,108.40
2023-08-08T08:49:59.293Z,104.14
2023-08-08T08:50:59.369Z,103.72
2023-08-08T08:51:59.586Z,100.12
2023-08-08T08:52:59.396Z,99.40
2023-08-08T08:53:59.467Z,97.51
2023-08-08T08:54:59.455Z,96.05
2023-08-08T08:55:59.528Z,94.12
2023-08-08T08:56:59.575Z,89.03
2023-08-08T08:57:59.617Z,86.93
2023-08-08T08:58:59.625Z,85.68
2023-08-08T08:59:59.686Z,84.02
2023-08-08T09:00:59.765Z,81.04
2023-08-08T09:02:00.268Z,76.60
2023-08-08T09:03:00.063Z,74.78
2023-08-08T09:03:59.879Z,71.47
2023-08-08T09:04:59.895Z,68.65
2023-08-08T09:05:59.968Z,66.72
2023-08-08T09:06:59.993Z,66.09
2023-08-08T09:08:00.052Z,64.00
2023-08-08T09:09:03.766Z,61.59
2023-08-08T09:10:01.134Z,61.65
2023-08-08T09:11:00.188Z,61.69
2023-08-08T09:12:00.229Z,59.68
2023-08-08T09:13:00.054Z,59.69
2023-08-08T09:14:00.049Z,57.16
2023-08-08T09:15:00.030Z,57.52
2023-08-08T09:16:00.242Z,54.85
2023-08-08T09:17:00.151Z,50.32
2023-08-08T09:18:00.052Z,51.37
2023-08-08T09:18:59.989Z,48.18
2023-08-08T09:20:00.024Z,49.40
2023-08-08T09:21:00.043Z,56.30
2023-08-08T09:22:00.233Z,60.42
2023-08-08T09:23:00.134Z,58.77
2023-08-08T09:24:00.164Z,58.40
2023-08-08T09:25:00.258Z,55.34
2023-08-08T09:26:00.279Z,62.08
2023-08-08T09:27:00.357Z,67.34
2023-08-08T09:28:00.374Z,70.27
2023-08-08T09:29:00.385Z,76.32
2023-08-08T09:30:00.459Z,76.31
2023-08-08T09:31:00.539Z,76.10
2023-08-08T09:32:00.911Z,76.74
2023-08-08T09:33:00.714Z,80.62
2023-08-08T09:34:00.784Z,84.00
2023-08-08T09:35:01.266Z,85.66
2023-08-08T09:36:00.748Z,81.61
2023-08-08T09:37:00.755Z,83.21
2023-08-08T09:38:00.828Z,81.11
2023-08-08T09:39:00.923Z,77.92
2023-08-08T09:40:00.960Z,74.54
2023-08-08T09:41:01.013Z,77.16
2023-08-08T09:42:01.306Z,77.66
2023-08-08T09:43:01.783Z,75.62
2023-08-08T09:44:01.125Z,71.48
2023-08-08T09:45:01.145Z,66.74
2023-08-08T09:46:01.266Z,64.52
2023-08-08T09:47:01.290Z,63.84
2023-08-08T09:48:01.439Z,59.82
2023-08-08T09:49:01.383Z,60.90
2023-08-08T09:50:01.464Z,58.86
2023-08-08T09:51:01.512Z,55.89
2023-08-08T09:52:01.836Z,52.16
2023-08-08T09:53:02.882Z,50.09
2023-08-08T09:54:01.686Z,54.02
2023-08-08T09:55:01.773Z,49.50
2023-08-08T09:56:01.806Z,48.03
2023-08-08T09:57:01.929Z,46.79
2023-08-08T09:58:01.903Z,45.82
2023-08-08T09:59:01.974Z,42.44
2023-08-08T10:00:02.092Z,42.66
2023-08-08T10:01:02.119Z,43.31
2023-08-08T10:02:02.460Z,39.37
2023-08-08T10:03:02.249Z,39.07
2023-08-08T10:04:02.332Z,34.49
2023-08-08T10:05:02.352Z,32.11
2023-08-08T10:06:02.404Z,27.52
2023-08-08T10:07:02.547Z,25.00
2023-08-08T10:08:02.569Z,25.00
2023-08-08T10:09:02.576Z,26.10
2023-08-08T10:10:02.640Z,25.19
2023-08-08T10:11:02.723Z,27.75
2023-08-08T10:12:03.011Z,26.08
2023-08-08T10:13:02.852Z,26.57
2023-08-08T10:14:02.869Z,27.72
2023-08-08T10:15:02.942Z,26.58
2023-08-08T10:16:03.143Z,26.42
2023-08-08T10:17:03.080Z,25.12
2023-08-08T10:18:03.164Z,27.32
2023-08-08T10:19:03.171Z,26.07
2023-08-08T10:20:03.263Z,25.00
2023-08-08T10:21:03.305Z,28.66
2023-08-08T10:22:03.740Z,27.58
2023-08-08T10:23:03.459Z,27.14
2023-08-08T10:24:03.521Z,25.21
2023-08-08T10:25:03.604Z,26.35
2023-08-08T10:26:03.667Z,27.59
2023-08-08T10:27:04.291Z,26.27
2023-08-08T10:28:09.115Z,25.85
2023-08-08T10:29:04.786Z,24.66
2023-08-08T10:30:03.739Z,23.18
2023-08-08T10:31:03.720Z,20.69
2023-08-08T10:32:03.864Z,20.37
2023-08-08T10:33:03.755Z,18.49
2023-08-08T10:34:03.722Z,25.04
2023-08-08T10:35:03.688Z,25.56
2023-08-08T10:36:03.695Z,27.45
2023-08-08T10:37:03.761Z,26.00
2023-08-08T10:38:03.879Z,26.17
2023-08-08T10:39:03.900Z,26.18
2023-08-08T10:40:03.932Z,25.25
2023-08-08T10:41:04.003Z,26.48
2023-08-08T10:42:04.064Z,26.90
2023-08-08T10:43:04.126Z,26.13
2023-08-08T10:44:04.240Z,25.23
2023-08-08T10:45:04.296Z,26.41
2023-08-08T10:46:13.653Z,25.70
2023-08-08T10:47:05.299Z,25.71
2023-08-08T10:48:04.349Z,24.57
2023-08-08T10:49:04.295Z,20.64
2023-08-08T10:50:04.380Z,17.99
2023-08-08T10:51:04.287Z,16.41
2023-08-08T10:52:04.304Z,25.00
2023-08-08T10:53:04.949Z,26.41
2023-08-08T10:54:04.251Z,27.02
2023-08-08T10:55:04.368Z,25.92
2023-08-08T10:56:04.367Z,26.85
2023-08-08T10:57:04.454Z,25.40
2023-08-08T10:58:04.533Z,27.59
2023-08-08T10:59:04.638Z,31.15
2023-08-08T11:00:04.640Z,33.93
2023-08-08T11:01:04.693Z,34.61
2023-08-08T11:02:04.759Z,35.82
2023-08-08T11:03:04.826Z,39.58
2023-08-08T11:04:04.870Z,50.54
2023-08-08T11:05:04.977Z,60.74
2023-08-08T11:06:05.028Z,65.08
2023-08-08T11:07:05.050Z,72.41
2023-08-08T11:08:05.150Z,78.15
2023-08-08T11:09:05.205Z,80.47
2023-08-08T11:10:05.246Z,78.77
2023-08-08T11:11:05.281Z,80.30
2023-08-08T11:12:05.470Z,81.72
2023-08-08T11:13:05.421Z,80.67
2023-08-08T11:14:05.508Z,75.70
2023-08-08T11:15:05.574Z,74.06
2023-08-08T11:16:05.693Z,71.24
2023-08-08T11:17:05.691Z,68.13
2023-08-08T11:18:05.938Z,67.79
2023-08-08T11:19:05.874Z,64.06
2023-08-08T11:20:05.857Z,68.27
2023-08-08T11:21:17.012Z,73.17
2023-08-08T11:22:06.895Z,71.70
2023-08-08T11:23:05.935Z,73.23
2023-08-08T11:24:05.921Z,74.80
2023-08-08T11:25:05.897Z,73.80
2023-08-08T11:27:05.877Z,66.88
2023-08-08T11:28:05.886Z,65.63
2023-08-08T11:29:05.948Z,62.04
2023-08-08T11:30:07.718Z,56.93
2023-08-08T11:31:05.878Z,52.24
2023-08-08T11:32:05.895Z,47.90
2023-08-08T11:34:05.854Z,42.75
2023-08-08T11:35:05.810Z,37.84
2023-08-08T11:36:07.255Z,37.47
2023-08-08T11:37:05.814Z,37.54
2023-08-08T11:38:05.811Z,36.62
2023-08-08T11:39:05.774Z,35.93
2023-08-08T11:40:05.803Z,34.29
2023-08-08T11:41:05.791Z,27.50
2023-08-08T11:42:06.107Z,27.23
2023-08-08T11:43:05.754Z,28.13
2023-08-08T11:44:05.790Z,31.13
2023-08-08T11:45:05.739Z,31.84
2023-08-08T11:46:05.766Z,33.98
2023-08-08T11:47:07.438Z,29.52
2023-08-08T11:48:05.756Z,32.03
2023-08-08T11:49:05.767Z,33.50
2023-08-08T11:50:05.732Z,40.30
2023-08-08T11:51:05.698Z,47.97
2023-08-08T11:52:05.687Z,53.20
2023-08-08T11:53:07.110Z,53.53
2023-08-08T11:54:05.672Z,51.61
2023-08-08T11:55:05.762Z,53.67
2023-08-08T11:56:05.703Z,53.42
2023-08-08T11:57:05.669Z,51.91
2023-08-08T11:58:05.743Z,47.74
2023-08-08T11:59:05.837Z,54.23
2023-08-08T12:00:05.818Z,61.17
2023-08-08T12:01:05.949Z,68.05
2023-08-08T12:02:05.932Z,70.11
2023-08-08T12:03:06.131Z,65.93
2023-08-08T12:04:06.110Z,70.62
2023-08-08T12:05:06.130Z,75.50
2023-08-08T12:06:06.205Z,80.93
2023-08-08T12:07:06.299Z,82.83
2023-08-08T12:08:06.336Z,88.14
2023-08-08T12:09:06.375Z,87.53
2023-08-08T12:10:06.420Z,91.50
2023-08-08T12:11:06.492Z,86.28
2023-08-08T12:12:08.587Z,79.99
2023-08-08T12:13:06.532Z,78.00
2023-08-08T12:14:06.524Z,74.77
2023-08-08T12:16:16.270Z,69.73
2023-08-08T12:17:07.530Z,64.32
2023-08-08T12:18:06.604Z,66.42
2023-08-08T12:19:06.491Z,62.79
2023-08-08T12:20:06.495Z,68.59
2023-08-08T12:21:06.486Z,75.05
2023-08-08T12:22:06.492Z,77.78
2023-08-08T12:23:06.529Z,75.62
2023-08-08T12:24:06.486Z,75.08
2023-08-08T12:25:06.498Z,73.34
2023-08-08T12:26:06.526Z,77.52
2023-08-08T12:27:06.592Z,85.16
2023-08-08T12:28:06.648Z,90.03
2023-08-08T12:29:06.694Z,90.98
2023-08-08T12:30:06.765Z,100.44
2023-08-08T12:31:06.814Z,111.57
2023-08-08T12:32:06.833Z,120.47
2023-08-08T12:33:06.873Z,126.56
2023-08-08T12:34:06.933Z,131.15
2023-08-08T12:35:07.008Z,134.16
2023-08-08T12:36:07.021Z,134.38
2023-08-08T12:37:07.096Z,137.93
2023-08-08T12:38:07.165Z,136.58
2023-08-08T12:39:07.182Z,135.44